Time;durP1;ratioP1;P1;durP2;ratioP2;P2;SDS_P1;SDS_P2;PMS_P1;PMS_P2;Temp;Humidity;BMP_temperature;BMP_pressure;BME280_temperature;BME280_humidity;BME280_pressure;Samples;Min_cycle;Max_cycle;Signal;HPM_P1;HPM_P2
2022/01/14 00:01:44;;;;;;;39.08;15.80;;;;;;;;;;5037507;28;20413;-76
2022/01/14 00:04:09;;;;;;;34.88;15.20;;;;;;;;;;5056470;28;20530;-76
2022/01/14 00:06:34;;;;;;;39.47;15.88;;;;;;;;;;5054153;28;20701;-76
2022/01/14 00:09:07;;;;;;;44.72;16.20;;;;;;;;;;5053127;28;20090;-76
2022/01/14 00:11:40;;;;;;;41.40;17.27;;;;;;;;;;5055325;28;20040;-76
2022/01/14 00:14:21;;;;;;;40.47;17.67;;;;;;;;;;5063698;28;20058;-76
2022/01/14 00:16:48;;;;;;;44.45;17.00;;;;;;;;;;5054396;28;20063;-76
2022/01/14 00:19:14;;;;;;;35.50;14.77;;;;;;;;;;5063235;28;20537;-76
2022/01/14 00:21:42;;;;;;;47.05;19.10;;;;;;;;;;5033730;28;20749;-76
2022/01/14 00:32:22;;;;;;;;;;;;;;;;;;5054762;28;20033;-76
2022/01/14 00:34:48;;;;;;;51.50;19.58;;;;;;;;;;5048682;28;19916;-76
2022/01/14 00:37:15;;;;;;;54.92;20.45;;;;;;;;;;5053175;28;20043;-76
2022/01/14 00:39:41;;;;;;;51.30;19.05;;;;;;;;;;5030700;28;20585;-76
2022/01/14 00:42:08;;;;;;;40.92;16.20;;;;;;;;;;5050970;28;20119;-76
2022/01/14 00:44:33;;;;;;;37.28;16.00;;;;;;;;;;5054379;28;20782;-76
2022/01/14 00:47:02;;;;;;;45.13;16.38;;;;;;;;;;5052254;28;20021;-76
2022/01/14 00:49:27;;;;;;;43.83;17.30;;;;;;;;;;5033288;28;20044;-76
2022/01/14 00:51:53;;;;;;;49.13;17.95;;;;;;;;;;5054946;28;20033;-76
2022/01/14 00:54:18;;;;;;;45.17;17.98;;;;;;;;;;5062696;28;20029;-76
2022/01/14 00:59:16;;;;;;;48.33;18.05;;;;;;;;;;5063112;28;20029;-75
2022/01/14 01:01:49;;;;;;;45.08;17.90;;;;;;;;;;5058904;28;20662;-76
2022/01/14 01:04:18;;;;;;;44.00;17.90;;;;;;;;;;5049928;28;20071;-76
2022/01/14 01:06:44;;;;;;;47.33;16.85;;;;;;;;;;5034673;28;20514;-75
2022/01/14 01:09:11;;;;;;;40.20;17.15;;;;;;;;;;5052975;28;20043;-76
2022/01/14 01:12:07;;;;;;;51.22;19.02;;;;;;;;;;5047893;28;20565;-76
2022/01/14 01:15:04;;;;;;;43.25;17.60;;;;;;;;;;5058180;28;20428;-76
2022/01/14 01:17:23;;;;;;;42.13;16.65;;;;;;;;;;5057611;28;20024;-76
2022/01/14 01:19:48;;;;;;;52.42;18.25;;;;;;;;;;5048153;28;20024;-76
2022/01/14 01:22:14;;;;;;;42.03;17.02;;;;;;;;;;5046753;28;20037;-76
2022/01/14 01:24:39;;;;;;;41.30;17.23;;;;;;;;;;5052493;28;20041;-76
2022/01/14 01:27:08;;;;;;;40.35;15.68;;;;;;;;;;5052162;28;20054;-76
2022/01/14 01:32:06;;;;;;;35.50;15.20;;;;;;;;;;5047663;28;20483;-76
2022/01/14 01:34:32;;;;;;;35.67;14.63;;;;;;;;;;5057529;28;20095;-76
2022/01/14 01:37:00;;;;;;;39.33;15.15;;;;;;;;;;5028785;28;20045;-76
2022/01/14 01:39:28;;;;;;;40.85;16.17;;;;;;;;;;5050562;28;20033;-76
2022/01/14 01:41:57;;;;;;;39.20;15.68;;;;;;;;;;5052890;28;20033;-76
2022/01/14 01:44:24;;;;;;;35.92;15.38;;;;;;;;;;5052202;28;20225;-76
2022/01/14 01:46:51;;;;;;;41.58;16.15;;;;;;;;;;5029754;28;20094;-75
2022/01/14 01:49:21;;;;;;;42.83;16.42;;;;;;;;;;5058124;28;20032;-76
2022/01/14 01:51:48;;;;;;;37.42;15.52;;;;;;;;;;5057320;28;20094;-76
2022/01/14 01:54:14;;;;;;;43.72;16.38;;;;;;;;;;5052165;28;20036;-76
2022/01/14 01:56:40;;;;;;;37.80;16.40;;;;;;;;;;5051688;28;20028;-76
2022/01/14 01:59:06;;;;;;;41.67;16.65;;;;;;;;;;5036219;28;20533;-76
2022/01/14 02:01:32;;;;;;;43.55;17.35;;;;;;;;;;5050663;28;20049;-76
2022/01/14 02:03:58;;;;;;;52.08;19.70;;;;;;;;;;5048656;28;20028;-75
2022/01/14 02:06:23;;;;;;;44.90;17.33;;;;;;;;;;5052833;28;20039;-76
2022/01/14 02:08:50;;;;;;;42.55;16.13;;;;;;;;;;5054988;28;20526;-76
2022/01/14 02:11:16;;;;;;;38.55;17.30;;;;;;;;;;5056945;28;20469;-76
2022/01/14 02:13:42;;;;;;;44.38;17.20;;;;;;;;;;5046991;28;20029;-76
2022/01/14 02:24:21;;;;;;;42.25;17.70;;;;;;;;;;5059244;28;21352;-76
2022/01/14 02:26:49;;;;;;;42.17;16.30;;;;;;;;;;5053365;28;20048;-76
2022/01/14 02:29:14;;;;;;;40.33;15.93;;;;;;;;;;5051265;28;20096;-76
2022/01/14 02:31:40;;;;;;;45.42;18.08;;;;;;;;;;5049309;28;20067;-76
2022/01/14 02:34:06;;;;;;;38.50;16.13;;;;;;;;;;5050552;28;20098;-76
2022/01/14 02:36:32;;;;;;;36.03;15.05;;;;;;;;;;5035817;28;20460;-76
2022/01/14 02:38:57;;;;;;;39.08;16.65;;;;;;;;;;5057806;28;20046;-76
2022/01/14 02:41:22;;;;;;;42.42;15.00;;;;;;;;;;5050471;28;20028;-76
2022/01/14 02:43:48;;;;;;;36.08;15.45;;;;;;;;;;5050141;28;20027;-76
2022/01/14 02:46:15;;;;;;;39.45;17.45;;;;;;;;;;5066157;28;20040;-77
2022/01/14 02:48:40;;;;;;;42.95;15.98;;;;;;;;;;5048929;28;20065;-76
2022/01/14 02:51:14;;;;;;;36.53;15.10;;;;;;;;;;5062430;28;20777;-76
2022/01/14 02:56:10;;;;;;;45.45;17.35;;;;;;;;;;5057432;28;20029;-75
2022/01/14 02:58:37;;;;;;;44.70;18.38;;;;;;;;;;5055925;28;20048;-76
2022/01/14 03:01:15;;;;;;;43.80;17.52;;;;;;;;;;5055986;28;20041;-76
2022/01/14 03:03:45;;;;;;;41.10;16.77;;;;;;;;;;5034037;28;20067;-76
2022/01/14 03:06:12;;;;;;;41.65;17.67;;;;;;;;;;5054930;28;20399;-76
2022/01/14 03:08:39;;;;;;;40.60;16.35;;;;;;;;;;5051175;28;20057;-76
2022/01/14 03:11:28;;;;;;;43.50;17.35;;;;;;;;;;5054676;28;20756;-76
2022/01/14 03:13:54;;;;;;;34.85;14.90;;;;;;;;;;5036800;28;20387;-76
2022/01/14 03:16:21;;;;;;;39.53;15.82;;;;;;;;;;5046753;28;20533;-76
2022/01/14 03:18:50;;;;;;;41.20;17.20;;;;;;;;;;5069415;28;20470;-76
2022/01/14 03:21:24;;;;;;;40.83;16.13;;;;;;;;;;5065055;28;20040;-76
2022/01/14 03:24:01;;;;;;;42.03;18.52;;;;;;;;;;5036049;28;20053;-76
2022/01/14 03:26:27;;;;;;;45.67;16.95;;;;;;;;;;5056271;28;20043;-76
2022/01/14 03:28:52;;;;;;;41.13;16.08;;;;;;;;;;5055170;28;20470;-76
2022/01/14 03:31:17;;;;;;;45.40;18.25;;;;;;;;;;5054902;28;20041;-76
2022/01/14 03:33:43;;;;;;;42.00;17.25;;;;;;;;;;5038318;28;20633;-76
2022/01/14 03:36:08;;;;;;;41.20;17.42;;;;;;;;;;5052046;28;20587;-76
2022/01/14 03:38:34;;;;;;;43.03;17.27;;;;;;;;;;5057358;28;20021;-77
2022/01/14 03:40:59;;;;;;;38.10;17.00;;;;;;;;;;5055834;28;20027;-76
2022/01/14 03:43:25;;;;;;;38.65;16.70;;;;;;;;;;5061050;28;20037;-77
2022/01/14 03:45:51;;;;;;;48.05;19.48;;;;;;;;;;5053119;28;20052;-77
2022/01/14 03:48:17;;;;;;;46.05;17.65;;;;;;;;;;5059209;28;20094;-77
2022/01/14 03:50:43;;;;;;;45.55;18.02;;;;;;;;;;5044027;28;20043;-77
2022/01/14 03:53:11;;;;;;;41.30;17.05;;;;;;;;;;5059849;28;20036;-77
2022/01/14 03:55:38;;;;;;;40.47;16.65;;;;;;;;;;5057131;28;20033;-77
2022/01/14 03:58:04;;;;;;;39.03;18.00;;;;;;;;;;5050212;28;20033;-76
2022/01/14 04:00:30;;;;;;;40.47;17.20;;;;;;;;;;5051413;28;20029;-77
2022/01/14 04:02:56;;;;;;;44.75;18.17;;;;;;;;;;5055273;28;20055;-77
2022/01/14 04:05:21;;;;;;;36.20;16.20;;;;;;;;;;5058924;28;20028;-77
2022/01/14 04:07:46;;;;;;;38.80;16.77;;;;;;;;;;5054840;28;20109;-77
2022/01/14 04:10:13;;;;;;;42.05;17.95;;;;;;;;;;5056231;28;20021;-77
2022/01/14 04:12:51;;;;;;;49.05;17.85;;;;;;;;;;5056935;28;20048;-77
2022/01/14 04:18:07;;;;;;;39.78;16.48;;;;;;;;;;5059866;28;20700;-77
2022/01/14 04:20:33;;;;;;;46.75;18.13;;;;;;;;;;5050033;28;20047;-77
2022/01/14 04:22:59;;;;;;;41.92;17.58;;;;;;;;;;5050016;28;20075;-77
2022/01/14 04:25:24;;;;;;;48.83;20.13;;;;;;;;;;5049273;28;20033;-77
2022/01/14 04:27:50;;;;;;;45.92;19.55;;;;;;;;;;5053833;28;20086;-77
2022/01/14 04:30:16;;;;;;;48.85;19.67;;;;;;;;;;5056774;28;20604;-77
2022/01/14 04:32:42;;;;;;;45.97;19.25;;;;;;;;;;5054379;28;20040;-77
2022/01/14 04:35:08;;;;;;;44.28;19.67;;;;;;;;;;5059911;28;20100;-77
2022/01/14 04:37:33;;;;;;;43.75;18.83;;;;;;;;;;5050601;28;20043;-77
2022/01/14 04:39:58;;;;;;;45.40;19.52;;;;;;;;;;5049918;28;20123;-77
2022/01/14 04:42:25;;;;;;;45.78;18.88;;;;;;;;;;5036746;28;20033;-77
2022/01/14 04:44:54;;;;;;;46.45;20.45;;;;;;;;;;5054605;28;20040;-77
2022/01/14 04:47:31;;;;;;;47.60;19.35;;;;;;;;;;5053532;28;20046;-77
2022/01/14 04:49:57;;;;;;;42.72;17.95;;;;;;;;;;5057262;28;20075;-77
2022/01/14 04:52:23;;;;;;;42.20;17.17;;;;;;;;;;5050709;28;20042;-77
2022/01/14 04:54:49;;;;;;;49.13;19.20;;;;;;;;;;5050457;28;20033;-77
2022/01/14 04:57:16;;;;;;;50.95;19.65;;;;;;;;;;5034561;28;20544;-77
2022/01/14 04:59:46;;;;;;;43.95;18.20;;;;;;;;;;5056626;28;20128;-77
2022/01/14 05:02:11;;;;;;;43.97;18.48;;;;;;;;;;5054219;28;20024;-77
2022/01/14 05:04:38;;;;;;;49.85;19.23;;;;;;;;;;5051618;28;20116;-77
2022/01/14 05:07:03;;;;;;;53.80;20.58;;;;;;;;;;5051042;28;20041;-77
2022/01/14 05:09:36;;;;;;;49.60;20.55;;;;;;;;;;5052473;28;20098;-77
2022/01/14 05:12:07;;;;;;;44.78;18.15;;;;;;;;;;5063591;28;20036;-77
2022/01/14 05:14:33;;;;;;;46.22;18.33;;;;;;;;;;5059750;28;20033;-77
2022/01/14 05:16:59;;;;;;;46.80;18.73;;;;;;;;;;5057125;28;20061;-77
2022/01/14 05:19:24;;;;;;;52.38;19.95;;;;;;;;;;5054350;28;20495;-77
2022/01/14 05:21:49;;;;;;;52.30;19.75;;;;;;;;;;5054384;28;20036;-78
2022/01/14 05:24:15;;;;;;;41.05;18.13;;;;;;;;;;5053827;28;20049;-77
2022/01/14 05:26:40;;;;;;;40.65;18.40;;;;;;;;;;5054749;28;20032;-77
2022/01/14 05:29:05;;;;;;;47.10;19.02;;;;;;;;;;5061579;28;20027;-78
2022/01/14 05:31:46;;;;;;;44.33;18.02;;;;;;;;;;5052516;28;20494;-77
2022/01/14 05:34:11;;;;;;;48.53;18.75;;;;;;;;;;5053323;28;20037;-77
2022/01/14 05:36:36;;;;;;;48.28;18.20;;;;;;;;;;5054358;28;20036;-77
2022/01/14 05:39:03;;;;;;;52.00;20.05;;;;;;;;;;5054129;28;20029;-77
2022/01/14 05:41:28;;;;;;;44.17;18.60;;;;;;;;;;5051250;28;20083;-77
2022/01/14 05:43:54;;;;;;;47.42;19.67;;;;;;;;;;5055374;28;20474;-77
2022/01/14 05:46:19;;;;;;;41.80;18.02;;;;;;;;;;5037675;28;20036;-77
2022/01/14 05:48:44;;;;;;;47.40;18.10;;;;;;;;;;5059937;28;20810;-77
2022/01/14 05:51:10;;;;;;;50.42;19.33;;;;;;;;;;5052623;28;20533;-77
2022/01/14 05:53:35;;;;;;;45.83;18.55;;;;;;;;;;5037467;28;20021;-77
2022/01/14 05:56:00;;;;;;;44.42;18.52;;;;;;;;;;5053690;28;20403;-78
2022/01/14 05:58:25;;;;;;;44.38;17.73;;;;;;;;;;5050915;28;20577;-77
2022/01/14 06:00:51;;;;;;;50.58;19.65;;;;;;;;;;5058328;28;20555;-77
2022/01/14 06:03:17;;;;;;;45.90;19.70;;;;;;;;;;5052415;28;20043;-77
2022/01/14 06:05:43;;;;;;;43.88;19.83;;;;;;;;;;5050714;28;20044;-77
2022/01/14 06:08:08;;;;;;;47.72;20.20;;;;;;;;;;5052464;28;20032;-77
2022/01/14 06:10:33;;;;;;;44.70;18.02;;;;;;;;;;5053642;28;20920;-76
2022/01/14 06:12:59;;;;;;;46.55;19.00;;;;;;;;;;5056313;28;20028;-77
2022/01/14 06:15:24;;;;;;;52.95;18.98;;;;;;;;;;5057265;28;20037;-77
2022/01/14 06:17:49;;;;;;;46.97;19.17;;;;;;;;;;5059918;28;20638;-77
2022/01/14 06:20:15;;;;;;;48.35;18.52;;;;;;;;;;5058053;28;20025;-77
2022/01/14 06:22:40;;;;;;;43.40;17.92;;;;;;;;;;5051686;28;20033;-77
2022/01/14 06:25:06;;;;;;;43.38;19.23;;;;;;;;;;5058344;28;20046;-77
2022/01/14 06:27:32;;;;;;;48.92;19.27;;;;;;;;;;5070003;28;20719;-77
2022/01/14 06:29:59;;;;;;;50.25;20.75;;;;;;;;;;5060874;28;20146;-77
2022/01/14 06:32:24;;;;;;;57.13;19.88;;;;;;;;;;5055561;28;20024;-77
2022/01/14 06:34:50;;;;;;;50.97;19.65;;;;;;;;;;5059105;28;20058;-77
2022/01/14 06:37:15;;;;;;;44.38;19.95;;;;;;;;;;5058695;28;20032;-77
2022/01/14 06:39:40;;;;;;;44.45;20.30;;;;;;;;;;5062074;28;20040;-77
2022/01/14 06:42:06;;;;;;;57.58;21.42;;;;;;;;;;5051392;28;20067;-77
2022/01/14 06:44:32;;;;;;;44.67;19.27;;;;;;;;;;5054187;28;20077;-77
2022/01/14 06:46:57;;;;;;;49.85;19.65;;;;;;;;;;5056691;28;20394;-77
2022/01/14 06:49:22;;;;;;;43.38;18.88;;;;;;;;;;5057255;28;20136;-77
2022/01/14 06:51:47;;;;;;;43.90;19.10;;;;;;;;;;5057772;28;20093;-77
2022/01/14 06:54:13;;;;;;;47.75;19.60;;;;;;;;;;5062064;28;20426;-77
2022/01/14 06:56:38;;;;;;;48.35;19.58;;;;;;;;;;5054587;28;20465;-77
2022/01/14 06:59:05;;;;;;;44.05;18.60;;;;;;;;;;5052524;28;20028;-77
2022/01/14 07:01:30;;;;;;;50.28;19.10;;;;;;;;;;5055715;28;20048;-77
2022/01/14 07:03:55;;;;;;;44.38;18.65;;;;;;;;;;5059030;28;20559;-77
2022/01/14 07:06:21;;;;;;;39.38;18.98;;;;;;;;;;5050845;28;20044;-77
2022/01/14 07:08:46;;;;;;;42.00;19.17;;;;;;;;;;5050692;28;20821;-77
2022/01/14 07:11:12;;;;;;;44.03;19.17;;;;;;;;;;5056416;28;20549;-76
2022/01/14 07:13:38;;;;;;;45.28;19.35;;;;;;;;;;5063255;28;20040;-77
2022/01/14 07:16:04;;;;;;;47.08;19.33;;;;;;;;;;5043721;28;20049;-77
2022/01/14 07:18:30;;;;;;;45.55;18.92;;;;;;;;;;5058688;28;20044;-75
2022/01/14 07:20:55;;;;;;;46.05;19.45;;;;;;;;;;5055846;28;20663;-75
2022/01/14 07:23:20;;;;;;;53.70;20.02;;;;;;;;;;5036065;28;20035;-75
2022/01/14 07:25:46;;;;;;;55.17;21.15;;;;;;;;;;5060558;28;20044;-75
2022/01/14 07:28:11;;;;;;;48.80;19.92;;;;;;;;;;5044041;28;20040;-75
2022/01/14 07:30:37;;;;;;;49.65;19.75;;;;;;;;;;5054503;28;20037;-75
2022/01/14 07:33:02;;;;;;;60.17;20.90;;;;;;;;;;5050250;28;20414;-75
2022/01/14 07:35:28;;;;;;;54.88;20.88;;;;;;;;;;5059254;28;20379;-75
2022/01/14 07:37:53;;;;;;;45.47;20.63;;;;;;;;;;5056175;28;20023;-73
2022/01/14 07:40:18;;;;;;;52.95;21.77;;;;;;;;;;5036443;28;20079;-75
2022/01/14 07:42:44;;;;;;;50.47;20.33;;;;;;;;;;5052219;28;20033;-75
2022/01/14 07:45:10;;;;;;;54.35;21.17;;;;;;;;;;5049773;28;20680;-75
2022/01/14 07:47:35;;;;;;;44.78;19.25;;;;;;;;;;5049235;28;20111;-75
2022/01/14 07:50:01;;;;;;;47.30;19.63;;;;;;;;;;5049980;28;20028;-74
2022/01/14 07:52:26;;;;;;;44.50;20.33;;;;;;;;;;5054935;28;20082;-75
2022/01/14 07:54:52;;;;;;;43.90;19.25;;;;;;;;;;5059258;28;20036;-75
2022/01/14 07:57:18;;;;;;;60.72;24.55;;;;;;;;;;5055105;28;20705;-75
2022/01/14 07:59:44;;;;;;;50.63;22.52;;;;;;;;;;5037104;28;20090;-75
2022/01/14 08:02:10;;;;;;;50.45;21.55;;;;;;;;;;5058006;28;20036;-75
2022/01/14 08:04:37;;;;;;;47.55;20.10;;;;;;;;;;5051395;28;20045;-75
2022/01/14 08:07:09;;;;;;;64.57;24.65;;;;;;;;;;5053418;28;20029;-75
2022/01/14 08:09:42;;;;;;;56.25;23.20;;;;;;;;;;5044786;28;20115;-75
2022/01/14 08:12:08;;;;;;;;;;;;;;;;;;5048870;28;20093;-76
2022/01/14 08:14:34;;;;;;;51.08;23.77;;;;;;;;;;5037710;28;20297;-75
2022/01/14 08:16:59;;;;;;;55.13;23.67;;;;;;;;;;5052092;28;20020;-75
2022/01/14 08:19:24;;;;;;;57.17;23.45;;;;;;;;;;5049073;28;20048;-75
2022/01/14 08:21:50;;;;;;;59.80;22.92;;;;;;;;;;5056665;28;20039;-75
2022/01/14 08:24:15;;;;;;;52.08;21.80;;;;;;;;;;5048655;28;20049;-75
2022/01/14 08:26:40;;;;;;;63.13;24.85;;;;;;;;;;5044816;28;20210;-82
2022/01/14 08:29:06;;;;;;;62.28;24.27;;;;;;;;;;5044294;28;20024;-79
2022/01/14 08:31:31;;;;;;;55.83;24.02;;;;;;;;;;5050015;28;20040;-77
2022/01/14 08:33:56;;;;;;;52.25;22.52;;;;;;;;;;5057305;28;20112;-79
2022/01/14 08:36:23;;;;;;;50.53;21.75;;;;;;;;;;5052291;28;20051;-75
2022/01/14 08:38:51;;;;;;;65.57;22.13;;;;;;;;;;5052574;28;20598;-76
2022/01/14 08:41:18;;;;;;;55.72;23.42;;;;;;;;;;5051971;28;20031;-77
2022/01/14 08:43:46;;;;;;;49.58;21.80;;;;;;;;;;5057905;28;20032;-76
2022/01/14 08:46:12;;;;;;;51.40;21.17;;;;;;;;;;5054336;28;20542;-76
2022/01/14 08:48:37;;;;;;;53.28;21.02;;;;;;;;;;5053708;28;20044;-78
2022/01/14 08:51:03;;;;;;;50.70;21.23;;;;;;;;;;5049647;28;20052;-78
2022/01/14 08:53:28;;;;;;;49.92;20.48;;;;;;;;;;5059514;28;20028;-79
2022/01/14 08:55:53;;;;;;;50.90;20.80;;;;;;;;;;5050137;28;20071;-81
2022/01/14 08:58:19;;;;;;;52.35;21.20;;;;;;;;;;5038964;28;20037;-78
2022/01/14 09:00:44;;;;;;;50.70;21.38;;;;;;;;;;5049471;28;20055;-77
2022/01/14 09:03:09;;;;;;;50.13;21.05;;;;;;;;;;5052697;28;20535;-85
2022/01/14 09:05:35;;;;;;;40.30;18.38;;;;;;;;;;5040217;28;20032;-78
2022/01/14 09:08:01;;;;;;;42.13;17.42;;;;;;;;;;5052945;28;20073;-79
2022/01/14 09:10:26;;;;;;;48.40;21.30;;;;;;;;;;5036278;28;20410;-80
2022/01/14 09:12:52;;;;;;;55.70;20.00;;;;;;;;;;5038595;28;20526;-79
2022/01/14 09:15:17;;;;;;;50.50;19.95;;;;;;;;;;5038338;28;20083;-79
2022/01/14 09:17:43;;;;;;;61.42;22.42;;;;;;;;;;5052765;28;20056;-74
2022/01/14 09:20:10;;;;;;;45.47;20.25;;;;;;;;;;5053532;28;20029;-71
2022/01/14 09:22:36;;;;;;;48.10;21.55;;;;;;;;;;5047177;28;20049;-76
2022/01/14 09:25:04;;;;;;;52.13;21.83;;;;;;;;;;5050936;28;20046;-76
2022/01/14 09:27:30;;;;;;;44.55;20.40;;;;;;;;;;5052623;28;20873;-76
2022/01/14 09:29:56;;;;;;;51.72;22.02;;;;;;;;;;5051949;28;20054;-76
2022/01/14 09:32:22;;;;;;;46.63;22.55;;;;;;;;;;5049262;28;20028;-76
2022/01/14 09:34:48;;;;;;;43.55;19.35;;;;;;;;;;5050300;28;20020;-76
2022/01/14 09:37:13;;;;;;;49.85;22.15;;;;;;;;;;5030341;28;20040;-76
2022/01/14 09:39:43;;;;;;;47.90;21.95;;;;;;;;;;5049126;28;20049;-76
2022/01/14 09:42:15;;;;;;;46.22;22.08;;;;;;;;;;5049789;28;20530;-76
2022/01/14 09:44:42;;;;;;;47.72;21.35;;;;;;;;;;5048768;28;20033;-76
2022/01/14 09:47:08;;;;;;;59.47;23.30;;;;;;;;;;5053358;28;20111;-75
2022/01/14 09:49:34;;;;;;;51.47;23.77;;;;;;;;;;5052226;28;20112;-76
2022/01/14 09:51:59;;;;;;;51.10;22.27;;;;;;;;;;5047267;28;20040;-80
2022/01/14 09:54:24;;;;;;;53.38;22.35;;;;;;;;;;5049246;28;20051;-80
2022/01/14 09:56:50;;;;;;;54.17;24.02;;;;;;;;;;5048685;28;20117;-79
2022/01/14 09:59:18;;;;;;;51.90;23.08;;;;;;;;;;5050536;28;20040;-79
2022/01/14 10:01:46;;;;;;;52.05;22.67;;;;;;;;;;5051078;28;20172;-79
2022/01/14 10:04:17;;;;;;;49.63;23.23;;;;;;;;;;5034274;28;20036;-79
2022/01/14 10:06:52;;;;;;;53.25;22.63;;;;;;;;;;5054618;28;20037;-79
2022/01/14 10:09:33;;;;;;;53.83;22.80;;;;;;;;;;5048594;28;20155;-79
2022/01/14 10:12:16;;;;;;;58.35;23.35;;;;;;;;;;5054986;28;20067;-79
2022/01/14 10:15:09;;;;;;;54.65;23.75;;;;;;;;;;5047665;28;20040;-80
2022/01/14 10:17:39;;;;;;;51.33;23.27;;;;;;;;;;5049807;28;20021;-80
2022/01/14 10:20:08;;;;;;;60.13;24.30;;;;;;;;;;5056614;28;20244;-79
2022/01/14 10:22:34;;;;;;;56.10;23.65;;;;;;;;;;5059243;28;20040;-91
2022/01/14 10:25:12;;;;;;;55.20;24.83;;;;;;;;;;5032913;28;20456;-77
2022/01/14 10:27:48;;;;;;;59.80;25.02;;;;;;;;;;5027163;28;20044;-75
2022/01/14 10:30:17;;;;;;;62.40;26.35;;;;;;;;;;5061316;28;20048;-78
2022/01/14 10:32:45;;;;;;;67.13;27.85;;;;;;;;;;5054273;28;20040;-72
2022/01/14 10:35:14;;;;;;;59.35;25.33;;;;;;;;;;5046837;28;20021;-74
2022/01/14 10:37:39;;;;;;;61.58;26.88;;;;;;;;;;5052625;28;20127;-76
2022/01/14 10:40:11;;;;;;;63.63;26.80;;;;;;;;;;5051548;28;20025;-75
2022/01/14 10:42:37;;;;;;;65.72;27.70;;;;;;;;;;5051081;28;20037;-75
2022/01/14 10:45:20;;;;;;;71.35;29.92;;;;;;;;;;5054463;28;20045;-74
2022/01/14 10:48:00;;;;;;;71.38;28.60;;;;;;;;;;5050395;28;20039;-76
2022/01/14 10:50:27;;;;;;;79.53;32.78;;;;;;;;;;5059348;28;20025;-75
2022/01/14 10:52:53;;;;;;;85.32;34.17;;;;;;;;;;5063229;28;20078;-74
2022/01/14 10:55:34;;;;;;;82.80;33.33;;;;;;;;;;5056815;28;20036;-73
2022/01/14 10:58:08;;;;;;;86.68;34.45;;;;;;;;;;5053446;28;20414;-76
2022/01/14 11:00:42;;;;;;;97.20;36.40;;;;;;;;;;5057659;28;20028;-77
2022/01/14 11:03:08;;;;;;;94.90;36.28;;;;;;;;;;5051211;28;20033;-76
2022/01/14 11:05:35;;;;;;;103.25;37.40;;;;;;;;;;5055391;28;20634;-76
2022/01/14 11:08:02;;;;;;;87.55;34.45;;;;;;;;;;5059035;28;20021;-77
2022/01/14 11:10:32;;;;;;;90.82;33.20;;;;;;;;;;5051524;28;20033;-76
2022/01/14 11:12:58;;;;;;;98.43;37.90;;;;;;;;;;5055198;28;20052;-82
2022/01/14 11:15:26;;;;;;;102.18;40.65;;;;;;;;;;5051459;28;20052;-79
2022/01/14 11:17:55;;;;;;;86.32;35.45;;;;;;;;;;5039020;28;20043;-82
2022/01/14 11:20:26;;;;;;;103.45;39.88;;;;;;;;;;5068761;28;20961;-76
2022/01/14 11:25:39;;;;;;;131.10;50.08;;;;;;;;;;5058198;28;20418;-76
2022/01/14 11:28:05;;;;;;;123.35;45.75;;;;;;;;;;5051272;28;20106;-79
2022/01/14 11:30:33;;;;;;;117.20;45.38;;;;;;;;;;5054794;28;20051;-77
2022/01/14 11:33:02;;;;;;;122.70;47.13;;;;;;;;;;5039929;28;20099;-74
2022/01/14 11:35:28;;;;;;;111.72;44.50;;;;;;;;;;5052054;28;20032;-76
2022/01/14 11:37:54;;;;;;;116.53;46.72;;;;;;;;;;5037724;28;20861;-75
2022/01/14 11:40:19;;;;;;;123.32;48.05;;;;;;;;;;5053625;28;20047;-75
2022/01/14 11:42:48;;;;;;;127.78;48.22;;;;;;;;;;5054033;28;20710;-81
2022/01/14 11:45:15;;;;;;;118.43;46.63;;;;;;;;;;5036573;28;20049;-83
2022/01/14 11:47:42;;;;;;;114.60;46.20;;;;;;;;;;5048289;28;20040;-76
2022/01/14 11:50:28;;;;;;;113.47;46.13;;;;;;;;;;5035668;28;20414;-80
2022/01/14 11:52:53;;;;;;;116.22;45.00;;;;;;;;;;5049553;28;20060;-75
2022/01/14 11:55:22;;;;;;;117.32;47.03;;;;;;;;;;5050207;28;20072;-76
2022/01/14 11:57:47;;;;;;;116.45;43.90;;;;;;;;;;5057447;28;20123;-78
2022/01/14 12:00:27;;;;;;;109.72;45.53;;;;;;;;;;5040115;28;20471;-79
2022/01/14 12:03:11;;;;;;;111.85;47.15;;;;;;;;;;5064073;28;20036;-78
2022/01/14 12:05:38;;;;;;;126.30;48.13;;;;;;;;;;5049818;28;20532;-79
2022/01/14 12:08:12;;;;;;;133.90;50.40;;;;;;;;;;5054901;28;20127;-82
2022/01/14 12:10:44;;;;;;;146.40;52.03;;;;;;;;;;5061076;28;20040;-77
2022/01/14 12:18:58;;;;;;;128.25;51.10;;;;;;;;;;5081178;28;20037;-77
2022/01/14 12:21:49;;;;;;;143.40;53.83;;;;;;;;;;5052691;28;20421;-77
2022/01/14 12:24:14;;;;;;;147.80;53.65;;;;;;;;;;5054850;28;20136;-78
2022/01/14 12:26:52;;;;;;;142.98;54.30;;;;;;;;;;5054088;28;20115;-77
2022/01/14 12:29:19;;;;;;;132.75;51.88;;;;;;;;;;5051303;28;20043;-78
2022/01/14 12:32:04;;;;;;;149.38;57.95;;;;;;;;;;5064635;28;20036;-77
2022/01/14 12:34:30;;;;;;;141.38;54.35;;;;;;;;;;5048302;28;20461;-81
2022/01/14 12:36:56;;;;;;;136.77;54.22;;;;;;;;;;5053311;28;20105;-84
2022/01/14 12:39:22;;;;;;;148.98;54.92;;;;;;;;;;5058755;28;20410;-83
2022/01/14 12:41:51;;;;;;;141.20;55.53;;;;;;;;;;5050758;28;20047;-79
2022/01/14 12:44:17;;;;;;;148.18;56.03;;;;;;;;;;5059342;28;20028;-76
2022/01/14 12:49:30;;;;;;;143.00;55.47;;;;;;;;;;5056442;28;20037;-80
2022/01/14 12:52:06;;;;;;;146.25;55.13;;;;;;;;;;5053469;28;20044;-77
2022/01/14 12:54:33;;;;;;;140.73;56.95;;;;;;;;;;5053409;28;20072;-79
2022/01/14 12:56:58;;;;;;;127.53;52.30;;;;;;;;;;5048671;28;20043;-86
2022/01/14 12:59:25;;;;;;;130.90;53.58;;;;;;;;;;5034957;28;20032;-82
2022/01/14 13:01:53;;;;;;;139.80;56.67;;;;;;;;;;5066037;28;20127;-77
2022/01/14 13:04:21;;;;;;;138.25;56.22;;;;;;;;;;5058912;28;20103;-80
2022/01/14 13:07:00;;;;;;;141.40;54.05;;;;;;;;;;5055795;28;20599;-85
2022/01/14 13:09:35;;;;;;;141.00;57.13;;;;;;;;;;5047731;28;20040;-84
2022/01/14 13:12:13;;;;;;;130.52;53.47;;;;;;;;;;5064370;28;20052;-79
2022/01/14 13:14:47;;;;;;;138.73;52.78;;;;;;;;;;5051448;28;20033;-82
2022/01/14 13:17:15;;;;;;;128.77;54.13;;;;;;;;;;5060436;28;20021;-79
2022/01/14 13:19:42;;;;;;;134.05;55.17;;;;;;;;;;5065437;28;20071;-80
2022/01/14 13:22:12;;;;;;;135.13;53.42;;;;;;;;;;5057218;28;20041;-84
2022/01/14 13:24:43;;;;;;;128.00;51.30;;;;;;;;;;5057912;28;20128;-80
2022/01/14 13:27:20;;;;;;;133.80;53.83;;;;;;;;;;5055457;28;20033;-77
2022/01/14 13:29:51;;;;;;;268.58;111.70;;;;;;;;;;5062934;28;20052;-79
2022/01/14 13:32:19;;;;;;;181.25;78.35;;;;;;;;;;5060614;28;20043;-86
2022/01/14 13:34:53;;;;;;;217.50;94.72;;;;;;;;;;5065601;28;20029;-79
2022/01/14 13:37:21;;;;;;;172.98;67.45;;;;;;;;;;5059470;28;20044;-82
2022/01/14 13:40:00;;;;;;;142.55;58.08;;;;;;;;;;5061353;28;20047;-84
2022/01/14 13:42:26;;;;;;;128.43;53.63;;;;;;;;;;5031657;28;20045;-78
2022/01/14 13:44:51;;;;;;;122.25;49.17;;;;;;;;;;5061403;28;20041;-79
2022/01/14 13:47:22;;;;;;;147.70;60.38;;;;;;;;;;5053710;28;20029;-77
2022/01/14 13:49:54;;;;;;;119.05;51.22;;;;;;;;;;5055366;28;20092;-80
2022/01/14 13:52:19;;;;;;;118.50;51.73;;;;;;;;;;5047721;28;20099;-83
2022/01/14 13:54:54;;;;;;;114.30;47.83;;;;;;;;;;5055576;28;20283;-82
2022/01/14 13:57:19;;;;;;;118.10;50.55;;;;;;;;;;5061171;28;20048;-79
2022/01/14 13:59:44;;;;;;;116.72;49.05;;;;;;;;;;5047467;28;20522;-78
2022/01/14 14:02:11;;;;;;;110.82;48.70;;;;;;;;;;5051954;28;20097;-78
2022/01/14 14:04:47;;;;;;;105.65;46.33;;;;;;;;;;5049841;28;20065;-79
2022/01/14 14:07:13;;;;;;;123.07;53.13;;;;;;;;;;5059240;28;20079;-77
2022/01/14 14:09:55;;;;;;;122.55;48.95;;;;;;;;;;5066493;28;20036;-79
2022/01/14 14:12:42;;;;;;;111.63;48.13;;;;;;;;;;5037053;28;20091;-84
2022/01/14 14:18:07;;;;;;;96.07;40.25;;;;;;;;;;5036532;28;20553;-84
2022/01/14 14:20:33;;;;;;;102.45;43.03;;;;;;;;;;5037582;28;20248;-83
2022/01/14 14:23:12;;;;;;;97.05;42.22;;;;;;;;;;5028895;28;20411;-80
2022/01/14 14:25:39;;;;;;;101.80;40.28;;;;;;;;;;5037733;28;20049;-84
2022/01/14 14:28:11;;;;;;;95.60;42.30;;;;;;;;;;5029413;28;20045;-81
2022/01/14 14:30:39;;;;;;;114.28;45.90;;;;;;;;;;5031734;28;20051;-81
2022/01/14 14:33:06;;;;;;;128.52;51.10;;;;;;;;;;5032456;28;20095;-81
2022/01/14 14:35:35;;;;;;;135.70;53.35;;;;;;;;;;5039079;28;20032;-78
2022/01/14 14:38:04;;;;;;;129.95;50.28;;;;;;;;;;5030962;28;20560;-78
2022/01/14 14:40:31;;;;;;;131.60;49.00;;;;;;;;;;5030933;28;20103;-78
2022/01/14 14:43:01;;;;;;;131.63;48.72;;;;;;;;;;5033626;28;20398;-80
2022/01/14 14:45:27;;;;;;;124.50;45.42;;;;;;;;;;5032477;28;20418;-81
2022/01/14 14:47:53;;;;;;;138.50;49.80;;;;;;;;;;5036566;28;20044;-80
2022/01/14 14:50:21;;;;;;;136.05;49.72;;;;;;;;;;5032230;28;20025;-79
2022/01/14 14:52:47;;;;;;;135.10;51.38;;;;;;;;;;5037180;28;20462;-88
2022/01/14 14:55:15;;;;;;;127.57;46.75;;;;;;;;;;5039955;28;20037;-86
2022/01/14 14:57:41;;;;;;;118.60;42.33;;;;;;;;;;5045323;28;20514;-78
2022/01/14 15:00:09;;;;;;;105.13;39.72;;;;;;;;;;5036409;28;20087;-80